Time;durP1;ratioP1;P1;durP2;ratioP2;P2;SDS_P1;SDS_P2;PMS_P1;PMS_P2;Temp;Humidity;BMP_temperature;BMP_pressure;BME280_temperature;BME280_humidity;BME280_pressure;Samples;Min_cycle;Max_cycle;Signal;HPM_P1;HPM_P2
2022/03/26 00:01:53;;;;;;;211.57;70.33;;;;;;;4.33;100.00;102070.53;7394448;19;20393;-49
2022/03/26 00:04:23;;;;;;;206.37;74.70;;;;;;;4.30;100.00;102058.41;7390027;19;20423;-48
2022/03/26 00:06:52;;;;;;;190.17;66.60;;;;;;;4.25;100.00;102034.09;7395266;19;20888;-51
2022/03/26 00:09:24;;;;;;;209.30;68.97;;;;;;;4.23;100.00;102021.94;7384955;19;20407;-49
2022/03/26 00:11:54;;;;;;;216.60;73.90;;;;;;;4.20;100.00;102017.44;7392709;19;20375;-48
2022/03/26 00:14:24;;;;;;;222.10;74.13;;;;;;;4.22;100.00;102000.63;7387800;19;20422;-52
2022/03/26 00:16:53;;;;;;;203.40;74.87;;;;;;;4.24;100.00;101993.06;7397474;19;20367;-47
2022/03/26 00:19:23;;;;;;;213.07;76.23;;;;;;;4.23;100.00;101976.84;7389056;19;20430;-51
2022/03/26 00:21:53;;;;;;;212.13;72.53;;;;;;;4.23;100.00;101981.97;7393689;19;20375;-49
2022/03/26 00:24:25;;;;;;;226.73;79.30;;;;;;;4.29;100.00;101963.72;7387923;19;20411;-51
2022/03/26 00:26:55;;;;;;;216.87;79.50;;;;;;;4.35;100.00;101956.56;7393773;19;20371;-49
2022/03/26 00:29:24;;;;;;;223.23;76.90;;;;;;;4.35;100.00;101946.34;7388252;19;20801;-50
2022/03/26 00:31:54;;;;;;;216.80;74.30;;;;;;;4.31;100.00;101949.44;7392365;19;20373;-51
2022/03/26 00:34:23;;;;;;;213.53;77.07;;;;;;;4.28;100.00;101942.38;7387691;19;20390;-48
2022/03/26 00:36:53;;;;;;;214.87;78.13;;;;;;;4.28;100.00;101949.16;7393481;19;20415;-50
2022/03/26 00:39:25;;;;;;;223.53;80.17;;;;;;;4.23;100.00;101941.09;7386967;19;20408;-49
2022/03/26 00:41:55;;;;;;;213.40;78.77;;;;;;;4.25;100.00;101928.47;7393233;19;20383;-51
2022/03/26 00:44:24;;;;;;;220.13;83.17;;;;;;;4.24;100.00;101926.63;7385990;19;20398;-47
2022/03/26 00:46:54;;;;;;;223.63;81.43;;;;;;;4.15;100.00;101907.22;7395678;19;20920;-49
2022/03/26 00:49:23;;;;;;;222.10;83.33;;;;;;;4.16;100.00;101906.44;7385029;19;20378;-50
2022/03/26 00:51:53;;;;;;;220.33;77.03;;;;;;;4.13;100.00;101883.19;7391868;19;20371;-47
2022/03/26 00:54:26;;;;;;;213.90;80.10;;;;;;;4.12;100.00;101876.31;7386858;19;20386;-48
2022/03/26 00:56:55;;;;;;;216.77;77.60;;;;;;;4.09;100.00;101870.03;7392845;19;20370;-53
2022/03/26 00:59:25;;;;;;;218.80;79.30;;;;;;;4.02;100.00;101853.28;7383437;19;20402;-49
2022/03/26 01:01:55;;;;;;;214.40;77.93;;;;;;;4.02;100.00;101835.41;7392850;19;20742;-48
2022/03/26 01:04:24;;;;;;;228.37;82.07;;;;;;;3.99;100.00;101822.38;7382987;19;20418;-46
2022/03/26 01:06:54;;;;;;;216.97;75.97;;;;;;;3.98;100.00;101811.25;7392401;19;20382;-47
2022/03/26 01:09:26;;;;;;;220.03;76.70;;;;;;;3.93;100.00;101797.19;7386232;19;20399;-52
2022/03/26 01:11:55;;;;;;;220.97;73.60;;;;;;;3.90;100.00;101789.28;7391149;19;20712;-50
2022/03/26 01:14:25;;;;;;;210.87;72.03;;;;;;;3.83;100.00;101775.09;7386248;19;20403;-49
2022/03/26 01:16:54;;;;;;;215.00;75.63;;;;;;;3.85;100.00;101758.22;7392368;19;20387;-50
2022/03/26 01:19:24;;;;;;;213.60;73.90;;;;;;;3.86;100.00;101748.94;7386523;19;20434;-52
2022/03/26 01:21:53;;;;;;;224.23;80.23;;;;;;;3.85;100.00;101742.91;7389468;19;20380;-48
2022/03/26 01:24:25;;;;;;;223.00;78.03;;;;;;;3.81;100.00;101735.78;7381792;19;20401;-49
2022/03/26 01:26:55;;;;;;;218.37;74.13;;;;;;;3.77;100.00;101723.50;7387843;19;20396;-48
2022/03/26 01:29:24;;;;;;;216.57;73.00;;;;;;;3.75;100.00;101719.94;7383900;19;20395;-51
2022/03/26 01:31:54;;;;;;;233.57;81.37;;;;;;;3.75;100.00;101719.94;7394900;19;20390;-47
2022/03/26 01:34:26;;;;;;;241.03;84.40;;;;;;;3.82;100.00;101716.22;7391354;19;20430;-50
2022/03/26 01:36:55;;;;;;;223.53;80.50;;;;;;;3.81;100.00;101705.13;7396252;19;20896;-53
2022/03/26 01:39:27;;;;;;;240.87;83.67;;;;;;;3.78;100.00;101694.66;7387615;19;20859;-53
2022/03/26 01:41:57;;;;;;;237.43;81.87;;;;;;;3.89;100.00;101681.13;7400711;19;20411;-46
2022/03/26 01:44:26;;;;;;;245.97;82.83;;;;;;;3.89;100.00;101686.25;7391125;19;20937;-49
2022/03/26 01:46:56;;;;;;;211.40;76.73;;;;;;;3.76;100.00;101688.53;7396712;19;20889;-55
2022/03/26 01:49:26;;;;;;;234.07;81.63;;;;;;;3.80;100.00;101676.91;7391108;19;20408;-52
2022/03/26 01:51:56;;;;;;;221.37;75.17;;;;;;;3.79;100.00;101670.91;7395226;19;20374;-48
2022/03/26 01:54:29;;;;;;;238.63;80.40;;;;;;;3.75;100.00;101672.31;7389847;19;20850;-55
2022/03/26 01:56:59;;;;;;;218.07;79.20;;;;;;;3.75;100.00;101663.78;7396015;19;20365;-49
2022/03/26 01:59:29;;;;;;;217.73;76.07;;;;;;;3.75;100.00;101664.66;7395174;19;20740;-51
2022/03/26 02:01:59;;;;;;;236.27;84.10;;;;;;;3.92;100.00;101657.53;7398983;19;20390;-46
2022/03/26 02:04:29;;;;;;;242.23;84.07;;;;;;;3.84;100.00;101664.53;7398237;19;20443;-50
2022/03/26 02:06:59;;;;;;;224.17;83.77;;;;;;;3.81;100.00;101659.19;7396367;19;20402;-46
2022/03/26 02:09:35;;;;;;;236.17;82.47;;;;;;;3.90;100.00;101659.94;7394701;19;20401;-46
2022/03/26 02:12:06;;;;;;;223.90;80.53;;;;;;;3.97;100.00;101661.34;7387442;19;20395;-50
2022/03/26 02:14:36;;;;;;;236.13;82.87;;;;;;;3.97;100.00;101666.47;7397726;19;20475;-53
2022/03/26 02:17:06;;;;;;;221.20;78.60;;;;;;;3.85;100.00;101666.31;7392328;19;20378;-50
2022/03/26 02:19:36;;;;;;;223.83;80.67;;;;;;;3.75;100.00;101668.88;7397337;19;20391;-53
2022/03/26 02:22:08;;;;;;;225.37;81.83;;;;;;;3.77;100.00;101668.25;7393046;19;20387;-51
2022/03/26 02:24:38;;;;;;;235.07;82.40;;;;;;;3.73;100.00;101667.84;7399814;19;20397;-47
2022/03/26 02:27:09;;;;;;;226.20;80.97;;;;;;;3.69;100.00;101668.38;7388766;19;20919;-52
2022/03/26 02:29:38;;;;;;;236.50;79.37;;;;;;;3.68;100.00;101666.59;7396870;19;20923;-51
2022/03/26 02:32:09;;;;;;;222.17;79.60;;;;;;;3.73;100.00;101667.84;7390159;19;20384;-47
2022/03/26 02:34:38;;;;;;;216.47;78.03;;;;;;;3.68;100.00;101669.13;7397038;19;20418;-49
2022/03/26 02:37:30;;;;;;;217.03;77.40;;;;;;;3.68;100.00;101666.59;7391924;19;20397;-49
2022/03/26 02:40:00;;;;;;;224.00;78.43;;;;;;;3.64;100.00;101666.31;7395917;19;20730;-50
2022/03/26 02:42:30;;;;;;;214.63;77.70;;;;;;;3.62;100.00;101675.50;7390096;19;20470;-50
2022/03/26 02:44:59;;;;;;;203.53;68.47;;;;;;;3.58;100.00;101670.91;7396272;19;20398;-50
2022/03/26 02:47:29;;;;;;;210.00;75.00;;;;;;;3.59;100.00;101666.69;7390399;19;20825;-50
2022/03/26 02:49:58;;;;;;;210.73;68.67;;;;;;;3.57;100.00;101661.47;7396557;19;20363;-49
2022/03/26 02:52:30;;;;;;;214.17;76.03;;;;;;;3.57;100.00;101668.19;7389249;19;20405;-49
2022/03/26 02:55:00;;;;;;;233.70;78.50;;;;;;;3.59;100.00;101667.56;7395921;19;20940;-49
2022/03/26 02:57:29;;;;;;;219.33;72.60;;;;;;;3.52;100.00;101660.16;7392516;19;20401;-51
2022/03/26 02:59:58;;;;;;;196.00;64.30;;;;;;;3.46;100.00;101652.00;7396246;19;20384;-49
2022/03/26 03:02:28;;;;;;;194.07;63.00;;;;;;;3.45;100.00;101645.09;7391180;19;20415;-53
2022/03/26 03:04:58;;;;;;;213.73;75.47;;;;;;;3.47;100.00;101657.22;7395478;19;20431;-51
2022/03/26 03:07:32;;;;;;;218.20;77.50;;;;;;;3.74;100.00;101662.88;7390570;19;20842;-49
2022/03/26 03:10:02;;;;;;;211.77;74.17;;;;;;;3.84;100.00;101669.63;7396478;19;20458;-53
2022/03/26 03:12:31;;;;;;;205.33;74.97;;;;;;;3.73;100.00;101666.19;7389311;19;20405;-48
2022/03/26 03:15:05;;;;;;;202.67;72.20;;;;;;;3.61;100.00;101670.25;7395450;19;20428;-49
2022/03/26 03:17:39;;;;;;;202.80;70.37;;;;;;;3.54;100.00;101673.06;7390100;19;20410;-53
2022/03/26 03:20:10;;;;;;;206.93;75.10;;;;;;;3.55;100.00;101664.63;7395529;19;20378;-48
2022/03/26 03:22:42;;;;;;;212.67;78.30;;;;;;;3.78;100.00;101679.34;7389476;19;20411;-50
2022/03/26 03:25:12;;;;;;;207.23;73.50;;;;;;;3.54;100.00;101678.16;7394956;19;20426;-47
2022/03/26 03:27:42;;;;;;;212.37;74.47;;;;;;;3.54;100.00;101684.16;7389010;19;20498;-52
2022/03/26 03:30:13;;;;;;;205.03;74.03;;;;;;;3.65;100.00;101690.19;7395319;19;20386;-48
2022/03/26 03:32:42;;;;;;;209.50;77.97;;;;;;;3.71;100.00;101692.34;7385140;19;20398;-50
2022/03/26 03:35:12;;;;;;;200.80;72.43;;;;;;;3.49;100.00;101695.66;7394852;19;20414;-51
2022/03/26 03:37:44;;;;;;;209.03;75.20;;;;;;;3.42;100.00;101694.22;7390689;19;20890;-49
2022/03/26 03:40:14;;;;;;;208.83;74.40;;;;;;;3.40;100.00;101687.19;7394991;19;20371;-48
2022/03/26 03:42:43;;;;;;;189.73;66.93;;;;;;;3.33;100.00;101693.44;7387538;19;20395;-48
2022/03/26 03:45:13;;;;;;;189.10;67.23;;;;;;;3.29;100.00;101694.84;7394407;19;20391;-50
2022/03/26 03:47:43;;;;;;;193.30;68.23;;;;;;;3.27;100.00;101690.34;7391025;19;20398;-48
2022/03/26 03:50:12;;;;;;;194.73;66.43;;;;;;;3.26;100.00;101686.91;7394435;19;20918;-52
2022/03/26 03:52:44;;;;;;;209.10;68.83;;;;;;;3.25;100.00;101685.13;7386847;19;20407;-48
2022/03/26 03:55:14;;;;;;;202.03;71.70;;;;;;;3.21;100.00;101688.16;7394136;19;20764;-50
2022/03/26 03:57:44;;;;;;;200.33;65.00;;;;;;;3.20;100.00;101688.91;7390580;19;21142;-47
2022/03/26 04:00:16;;;;;;;196.23;67.27;;;;;;;3.15;100.00;101673.22;7394150;19;20394;-49
2022/03/26 04:02:46;;;;;;;198.30;68.00;;;;;;;3.18;100.00;101672.59;7388478;19;20486;-46
2022/03/26 04:05:15;;;;;;;206.03;72.70;;;;;;;3.18;100.00;101678.56;7398058;19;20431;-47
2022/03/26 04:07:47;;;;;;;213.20;62.87;;;;;;;3.14;100.00;101676.53;7389783;19;20425;-52
2022/03/26 04:10:17;;;;;;;212.40;72.93;;;;;;;3.12;100.00;101672.06;7394259;19;20383;-50
2022/03/26 04:12:47;;;;;;;191.80;61.50;;;;;;;3.08;100.00;101661.59;7391695;19;20411;-53
2022/03/26 04:15:17;;;;;;;197.40;65.57;;;;;;;3.06;100.00;101659.66;7393296;19;20763;-51
2022/03/26 04:17:49;;;;;;;197.87;67.03;;;;;;;3.10;100.00;101654.06;7389650;19;20394;-48
2022/03/26 04:20:19;;;;;;;180.80;62.67;;;;;;;3.11;100.00;101658.41;7393873;19;20385;-53
2022/03/26 04:22:51;;;;;;;197.90;60.60;;;;;;;3.13;100.00;101646.66;7387468;19;20416;-51
2022/03/26 04:25:20;;;;;;;189.73;68.03;;;;;;;3.12;100.00;101651.66;7395744;19;20415;-49
2022/03/26 04:27:50;;;;;;;196.53;60.67;;;;;;;3.14;100.00;101645.03;7386524;19;20404;-49
2022/03/26 04:30:20;;;;;;;203.30;63.00;;;;;;;3.15;100.00;101646.81;7393712;19;20411;-50
2022/03/26 04:32:49;;;;;;;211.90;71.70;;;;;;;3.21;100.00;101647.34;7388880;19;20435;-49
2022/03/26 04:35:19;;;;;;;197.17;69.07;;;;;;;3.21;100.00;101643.16;7392647;19;20400;-50
2022/03/26 04:37:55;;;;;;;197.30;65.30;;;;;;;3.22;100.00;101644.03;7386901;19;20434;-53
2022/03/26 04:40:25;;;;;;;207.57;69.70;;;;;;;3.21;100.00;101649.91;7393475;19;20359;-49
2022/03/26 04:42:55;;;;;;;186.37;69.37;;;;;;;3.23;100.00;101643.28;7383177;19;20414;-51
2022/03/26 04:45:25;;;;;;;211.20;67.77;;;;;;;3.23;100.00;101640.75;7391991;19;20421;-50
2022/03/26 04:47:55;;;;;;;206.67;69.90;;;;;;;3.23;100.00;101640.75;7384078;19;20398;-54
2022/03/26 04:50:24;;;;;;;202.20;70.77;;;;;;;3.24;100.00;101645.06;7393121;19;20390;-50
2022/03/26 04:52:56;;;;;;;207.10;70.70;;;;;;;3.27;100.00;101637.66;7384244;19;20419;-51
2022/03/26 04:55:26;;;;;;;219.10;71.80;;;;;;;3.47;100.00;101643.56;7392064;19;20411;-50
2022/03/26 04:57:55;;;;;;;206.50;71.30;;;;;;;3.51;100.00;101654.19;7387619;19;20394;-48
2022/03/26 05:00:26;;;;;;;210.03;75.03;;;;;;;3.44;100.00;101651.84;7393130;19;20779;-48
2022/03/26 05:02:55;;;;;;;203.37;69.70;;;;;;;3.26;100.00;101661.38;7386278;19;20406;-49
2022/03/26 05:05:25;;;;;;;202.87;71.80;;;;;;;3.34;100.00;101665.47;7397091;19;20419;-47
2022/03/26 05:07:59;;;;;;;219.20;77.03;;;;;;;3.32;100.00;101667.03;7397026;19;20425;-52
2022/03/26 05:10:30;;;;;;;199.47;69.97;;;;;;;3.23;100.00;101659.47;7399926;19;20925;-51
2022/03/26 05:13:01;;;;;;;221.70;75.97;;;;;;;3.22;100.00;101665.34;7395155;19;20423;-49
2022/03/26 05:15:30;;;;;;;189.30;68.67;;;;;;;3.21;100.00;101661.00;7398493;19;20405;-49
2022/03/26 05:18:00;;;;;;;215.67;72.87;;;;;;;3.22;100.00;101659.31;7389502;19;20739;-51
2022/03/26 05:20:29;;;;;;;206.53;72.97;;;;;;;3.23;100.00;101671.34;7400108;19;20377;-49
2022/03/26 05:23:02;;;;;;;203.77;70.43;;;;;;;3.22;100.00;101654.22;7393304;19;20413;-46
2022/03/26 05:25:31;;;;;;;195.83;66.27;;;;;;;3.23;100.00;101656.03;7398219;19;20910;-53
2022/03/26 05:28:01;;;;;;;203.13;67.47;;;;;;;3.17;100.00;101650.41;7393757;19;20409;-50
2022/03/26 05:30:30;;;;;;;199.60;66.70;;;;;;;3.14;100.00;101629.72;7399837;19;20375;-50
2022/03/26 05:33:00;;;;;;;186.27;58.17;;;;;;;3.10;100.00;101632.03;7394390;19;20401;-48
2022/03/26 05:35:30;;;;;;;200.63;67.37;;;;;;;3.14;100.00;101629.72;7397739;19;20396;-48
2022/03/26 05:38:04;;;;;;;236.83;70.37;;;;;;;3.18;100.00;101631.78;7390168;19;20408;-52
2022/03/26 05:40:33;;;;;;;207.53;68.93;;;;;;;3.16;100.00;101633.28;7399085;19;20388;-50
2022/03/26 05:43:03;;;;;;;223.93;74.83;;;;;;;3.23;100.00;101635.63;7392313;19;20399;-51
2022/03/26 05:45:33;;;;;;;224.53;77.87;;;;;;;3.18;100.00;101627.56;7400184;19;20406;-46
2022/03/26 05:48:05;;;;;;;230.17;78.43;;;;;;;3.23;100.00;101631.41;7390647;19;20415;-49
2022/03/26 05:50:34;;;;;;;198.77;65.47;;;;;;;3.24;100.00;101627.22;7399399;19;20388;-49
2022/03/26 05:53:06;;;;;;;217.00;71.37;;;;;;;3.28;100.00;101623.25;7391254;19;20414;-49
2022/03/26 05:55:36;;;;;;;211.67;71.03;;;;;;;3.30;100.00;101620.09;7397247;19;20442;-56
2022/03/26 05:58:06;;;;;;;218.37;74.37;;;;;;;3.34;100.00;101624.66;7390404;19;20401;-49
2022/03/26 06:00:35;;;;;;;241.70;74.80;;;;;;;3.39;100.00;101614.88;7398958;19;20387;-48
2022/03/26 06:03:05;;;;;;;225.17;78.03;;;;;;;3.44;100.00;101623.78;7393097;19;20402;-52
2022/03/26 06:05:34;;;;;;;232.50;78.57;;;;;;;3.45;100.00;101623.03;7396655;19;20394;-53
2022/03/26 06:08:07;;;;;;;232.10;79.00;;;;;;;3.51;100.00;101620.09;7389458;19;20422;-52
2022/03/26 06:10:36;;;;;;;219.30;70.20;;;;;;;3.58;100.00;101629.19;7402786;19;20391;-49
2022/03/26 06:13:06;;;;;;;232.00;76.10;;;;;;;3.60;100.00;101632.75;7389850;19;20418;-49
2022/03/26 06:15:37;;;;;;;232.37;78.43;;;;;;;3.62;100.00;101633.75;7394551;19;20426;-51
2022/03/26 06:18:13;;;;;;;215.20;75.60;;;;;;;3.80;100.00;101631.88;7392981;19;20402;-46
2022/03/26 06:20:43;;;;;;;226.57;78.43;;;;;;;3.82;100.00;101626.88;7398164;19;20372;-48
2022/03/26 06:23:15;;;;;;;224.77;73.33;;;;;;;3.85;100.00;101617.81;7392684;19;20399;-52
2022/03/26 06:25:44;;;;;;;236.97;85.77;;;;;;;3.95;100.00;101616.91;7395976;19;20391;-47
2022/03/26 06:28:19;;;;;;;222.67;82.40;;;;;;;4.03;100.00;101622.66;7392071;19;20402;-53
2022/03/26 06:30:49;;;;;;;218.80;76.63;;;;;;;4.14;100.00;101624.44;7401339;19;20387;-50
2022/03/26 06:33:18;;;;;;;213.57;78.33;;;;;;;4.26;100.00;101623.66;7389692;19;20470;-54
2022/03/26 06:35:48;;;;;;;211.03;75.70;;;;;;;4.32;100.00;101624.16;7395262;19;20935;-45
2022/03/26 06:38:23;;;;;;;203.77;71.30;;;;;;;4.36;100.00;101620.16;7392204;19;20394;-53
2022/03/26 06:40:52;;;;;;;211.70;73.60;;;;;;;4.43;100.00;101623.34;7397563;19;20390;-50
2022/03/26 06:43:22;;;;;;;211.57;74.17;;;;;;;4.54;100.00;101628.41;7388508;19;20391;-50
2022/03/26 06:45:51;;;;;;;212.03;76.60;;;;;;;4.60;100.00;101636.56;7395866;19;20524;-51
2022/03/26 06:48:21;;;;;;;222.83;75.30;;;;;;;4.70;100.00;101638.19;7389831;19;20453;-51
2022/03/26 06:50:50;;;;;;;201.43;67.33;;;;;;;4.76;100.00;101632.69;7397269;19;20387;-54
2022/03/26 06:53:22;;;;;;;188.63;68.27;;;;;;;4.86;100.00;101635.19;7391920;19;20411;-49
2022/03/26 06:55:52;;;;;;;183.87;67.40;;;;;;;4.97;100.00;101644.63;7394800;19;20423;-50
2022/03/26 06:58:22;;;;;;;197.67;72.00;;;;;;;5.08;100.00;101653.13;7391855;19;20418;-53
2022/03/26 07:00:51;;;;;;;186.73;68.00;;;;;;;5.16;100.00;101655.38;7396589;19;20364;-51
2022/03/26 07:03:21;;;;;;;186.23;66.40;;;;;;;5.23;100.00;101663.66;7391989;19;20402;-56
2022/03/26 07:05:51;;;;;;;201.37;72.37;;;;;;;5.33;100.00;101659.28;7395086;19;20403;-49
2022/03/26 07:08:23;;;;;;;183.63;64.97;;;;;;;5.40;100.00;101661.53;7390809;19;20419;-52
2022/03/26 07:10:52;;;;;;;176.80;68.53;;;;;;;5.52;100.00;101666.69;7396437;19;20376;-51
2022/03/26 07:13:22;;;;;;;172.07;66.73;;;;;;;5.62;100.00;101669.19;7391052;19;20419;-48
2022/03/26 07:15:52;;;;;;;170.23;59.67;;;;;;;5.75;100.00;101676.13;7394113;19;20437;-50
2022/03/26 07:18:21;;;;;;;161.33;59.47;;;;;;;5.90;100.00;101685.78;7390853;19;20511;-48
2022/03/26 07:20:52;;;;;;;151.93;61.03;;;;;;;6.01;100.00;101697.69;7395783;19;20384;-55
2022/03/26 07:23:24;;;;;;;131.70;54.07;;;;;;;6.15;100.00;101703.91;7389808;19;20418;-52
2022/03/26 07:25:54;;;;;;;141.40;56.30;;;;;;;6.29;100.00;101710.06;7394352;19;20934;-50
2022/03/26 07:28:23;;;;;;;147.53;59.50;;;;;;;6.49;100.00;101715.78;7386364;19;20498;-49
2022/03/26 07:30:53;;;;;;;136.03;50.63;;;;;;;6.57;100.00;101724.91;7395864;19;20388;-46
2022/03/26 07:33:22;;;;;;;135.20;54.30;;;;;;;6.69;100.00;101730.06;7389740;19;20415;-50
2022/03/26 07:35:52;;;;;;;138.07;53.43;;;;;;;6.85;100.00;101732.09;7394023;19;20425;-53
2022/03/26 07:38:21;;;;;;;117.70;47.60;;;;;;;6.98;100.00;101749.25;7389163;19;20424;-49
2022/03/26 07:40:54;;;;;;;113.83;47.90;;;;;;;6.95;100.00;101760.97;7395523;19;20907;-52
2022/03/26 07:43:24;;;;;;;117.83;52.23;;;;;;;7.02;100.00;101768.31;7390603;19;21277;-48
2022/03/26 07:45:53;;;;;;;112.17;47.47;;;;;;;7.08;100.00;101781.59;7395352;19;20420;-50
2022/03/26 07:48:23;;;;;;;113.40;48.80;;;;;;;7.13;100.00;101784.50;7389248;19;20500;-48
2022/03/26 07:50:52;;;;;;;106.23;47.60;;;;;;;7.23;100.00;101796.34;7395079;19;20400;-51
2022/03/26 07:53:22;;;;;;;116.70;50.10;;;;;;;7.33;100.00;101795.31;7388697;19;20496;-50
2022/03/26 07:55:58;;;;;;;122.43;48.27;;;;;;;7.64;100.00;101802.63;7393582;19;20438;-49
2022/03/26 07:58:27;;;;;;;112.90;46.03;;;;;;;7.57;100.00;101809.00;7385537;19;20472;-48
2022/03/26 08:00:57;;;;;;;116.23;49.50;;;;;;;7.57;100.00;101814.13;7394628;19;20383;-49
2022/03/26 08:03:27;;;;;;;112.23;44.80;;;;;;;7.64;100.00;101821.50;7388362;19;20441;-54
2022/03/26 08:05:57;;;;;;;104.77;46.10;;;;;;;7.72;100.00;101824.59;7393128;19;20419;-53
2022/03/26 08:08:26;;;;;;;101.77;44.40;;;;;;;7.80;100.00;101827.72;7385199;19;20424;-48
2022/03/26 08:10:58;;;;;;;94.40;39.37;;;;;;;7.91;100.00;101823.31;7394619;19;20921;-51
2022/03/26 08:13:28;;;;;;;74.23;36.17;;;;;;;8.05;100.00;101826.88;7391545;19;20518;-54
2022/03/26 08:15:58;;;;;;;82.93;36.97;;;;;;;8.14;100.00;101832.63;7392759;19;20436;-53
2022/03/26 08:18:30;;;;;;;75.90;34.43;;;;;;;8.24;100.00;101841.88;7387660;19;20439;-49
2022/03/26 08:21:06;;;;;;;71.97;33.93;;;;;;;8.46;100.00;101835.63;7396860;19;20474;-50
2022/03/26 08:23:35;;;;;;;71.70;31.60;;;;;;;8.68;100.00;101848.28;7386950;19;20481;-53
2022/03/26 08:28:49;;;;;;;73.40;33.97;;;;;;;8.71;100.00;101861.34;7385076;19;20486;-51
2022/03/26 08:31:20;;;;;;;64.00;30.70;;;;;;;8.82;100.00;101863.75;7393153;19;20455;-49
2022/03/26 08:33:50;;;;;;;62.10;28.83;;;;;;;8.88;100.00;101869.31;7387437;19;20431;-48
2022/03/26 08:36:20;;;;;;;66.47;31.33;;;;;;;8.97;100.00;101875.06;7395334;19;20415;-53
2022/03/26 08:38:50;;;;;;;79.10;33.30;;;;;;;9.08;100.00;101872.31;7384568;19;20422;-53
2022/03/26 08:41:24;;;;;;;68.60;32.80;;;;;;;9.25;100.00;101882.03;7397660;19;20471;-54
2022/03/26 08:43:54;;;;;;;60.60;29.70;;;;;;;9.35;100.00;101880.03;7386570;19;20773;-50
2022/03/26 08:46:24;;;;;;;63.57;30.90;;;;;;;9.44;100.00;101878.06;7394488;19;20465;-51
2022/03/26 08:48:53;;;;;;;79.90;32.97;;;;;;;9.35;100.00;101882.63;7383458;19;20427;-48
2022/03/26 08:51:23;;;;;;;66.63;31.67;;;;;;;9.34;100.00;101891.13;7392598;19;20388;-51
2022/03/26 08:53:52;;;;;;;73.50;34.37;;;;;;;9.40;100.00;101882.13;7385837;19;20422;-47
2022/03/26 08:56:25;;;;;;;66.47;32.77;;;;;;;9.49;100.00;101886.09;7390960;19;20436;-49
2022/03/26 08:58:55;;;;;;;75.33;34.60;;;;;;;9.54;100.00;101888.16;7385159;19;20961;-53
2022/03/26 09:01:24;;;;;;;83.70;34.80;;;;;;;9.58;100.00;101882.41;7396711;19;20420;-50
2022/03/26 09:03:54;;;;;;;61.17;29.07;;;;;;;9.67;100.00;101891.50;7385249;19;20439;-52
2022/03/26 09:06:24;;;;;;;60.63;31.80;;;;;;;9.80;100.00;101891.50;7390817;19;20419;-55
2022/03/26 09:08:54;;;;;;;64.83;31.17;;;;;;;9.93;100.00;101895.75;7387284;19;20411;-52
2022/03/26 09:11:26;;;;;;;48.03;25.47;;;;;;;9.94;100.00;101906.97;7391981;19;20470;-50
2022/03/26 09:13:55;;;;;;;47.53;23.40;;;;;;;10.10;100.00;101899.38;7382965;19;20776;-46
2022/03/26 09:16:25;;;;;;;47.37;24.03;;;;;;;10.08;100.00;101913.88;7390241;19;20419;-51
2022/03/26 09:18:55;;;;;;;45.87;22.50;;;;;;;10.18;100.00;101911.84;7381472;19;20419;-49
2022/03/26 09:21:24;;;;;;;43.07;22.10;;;;;;;10.17;100.00;101930.69;7391734;19;20376;-49
2022/03/26 09:23:54;;;;;;;39.43;19.07;;;;;;;10.09;100.00;101951.75;7386693;19;20490;-49
2022/03/26 09:26:26;;;;;;;44.60;22.70;;;;;;;10.12;100.00;101941.59;7390864;19;20423;-48
2022/03/26 09:28:55;;;;;;;36.80;18.63;;;;;;;10.37;100.00;101956.03;7383605;19;20422;-50
2022/03/26 09:31:25;;;;;;;31.93;17.80;;;;;;;10.74;100.00;101956.53;7391832;19;20420;-49
2022/03/26 09:33:55;;;;;;;39.40;19.97;;;;;;;10.86;100.00;101985.66;7385540;19;20423;-48
2022/03/26 09:36:24;;;;;;;39.00;19.40;;;;;;;11.06;100.00;101998.88;7389586;19;20437;-52
2022/03/26 09:38:54;;;;;;;29.33;15.20;;;;;;;10.96;100.00;102007.78;7386052;19;20427;-48
2022/03/26 09:41:27;;;;;;;27.70;13.53;;;;;;;11.24;100.00;102013.69;7391670;19;20384;-49
2022/03/26 09:43:57;;;;;;;25.83;12.50;;;;;;;11.21;100.00;102032.47;7385672;19;20411;-49
2022/03/26 09:46:28;;;;;;;24.40;11.77;;;;;;;11.20;100.00;102029.03;7389664;19;20939;-52
2022/03/26 09:48:59;;;;;;;35.60;15.90;;;;;;;11.10;100.00;102038.69;7382560;19;20445;-47
2022/03/26 09:51:28;;;;;;;20.53;10.40;;;;;;;11.13;100.00;102023.41;7397330;19;20380;-46
2022/03/26 09:53:58;;;;;;;18.97;10.80;;;;;;;11.13;100.00;102023.41;7392287;19;20420;-55
2022/03/26 09:56:31;;;;;;;32.97;15.93;;;;;;;11.07;100.00;102023.91;7395519;19;20433;-50
2022/03/26 09:59:00;;;;;;;79.53;30.83;;;;;;;10.98;100.00;102028.53;7389101;19;20503;-53
2022/03/26 10:01:30;;;;;;;60.73;23.53;;;;;;;11.06;100.00;102022.13;7399632;19;20406;-49
2022/03/26 10:04:12;;;;;;;21.93;10.63;;;;;;;11.19;100.00;102031.50;7391568;19;20429;-48
2022/03/26 10:06:51;;;;;;;23.90;11.80;;;;;;;11.23;100.00;102030.88;7398662;19;20392;-51
2022/03/26 10:09:28;;;;;;;22.80;12.33;;;;;;;11.17;100.00;102031.41;7390549;19;20415;-52
2022/03/26 10:12:05;;;;;;;19.17;11.43;;;;;;;11.20;100.00;102038.47;7398155;19;20384;-46
2022/03/26 10:14:43;;;;;;;22.90;11.57;;;;;;;11.13;100.00;102039.75;7394788;19;20404;-50
2022/03/26 10:17:15;;;;;;;19.97;11.77;;;;;;;11.10;100.00;102031.84;7390343;19;20401;-49
2022/03/26 10:19:46;;;;;;;24.83;14.73;;;;;;;11.04;100.00;102026.31;7396289;19;20376;-55
2022/03/26 10:22:25;;;;;;;29.93;15.30;;;;;;;10.97;100.00;102022.47;7391331;19;20381;-54
2022/03/26 10:24:55;;;;;;;23.70;11.73;;;;;;;10.99;100.00;102015.72;7396508;19;20968;-51
2022/03/26 10:27:27;;;;;;;20.10;11.27;;;;;;;10.78;100.00;102013.59;7392169;19;20425;-55
2022/03/26 10:29:59;;;;;;;33.00;14.27;;;;;;;10.77;100.00;102004.06;7396438;19;20923;-53
2022/03/26 10:32:41;;;;;;;20.70;11.23;;;;;;;10.90;100.00;102005.72;7388125;19;20415;-55
2022/03/26 10:35:13;;;;;;;19.80;11.80;;;;;;;10.93;100.00;101994.69;7395758;19;20488;-54
2022/03/26 10:37:56;;;;;;;26.10;13.53;;;;;;;10.97;100.00;101990.59;7389348;19;20416;-51
2022/03/26 10:40:31;;;;;;;27.20;13.77;;;;;;;10.87;100.00;101995.19;7398363;19;20434;-50
2022/03/26 10:43:07;;;;;;;24.10;13.07;;;;;;;10.88;100.00;101986.63;7389748;19;20423;-53
2022/03/26 10:45:39;;;;;;;22.70;13.10;;;;;;;10.90;100.00;101979.00;7395488;19;20428;-52
2022/03/26 10:48:11;;;;;;;30.63;15.20;;;;;;;10.85;100.00;101989.06;7389425;19;20797;-53
2022/03/26 10:50:41;;;;;;;22.73;12.10;;;;;;;11.06;100.00;101978.22;7396713;19;20715;-54
2022/03/26 10:53:13;;;;;;;20.70;12.10;;;;;;;11.23;100.00;101983.50;7389607;19;20419;-55
2022/03/26 10:55:44;;;;;;;20.87;12.50;;;;;;;11.02;100.00;101984.91;7397635;19;20448;-52
2022/03/26 10:58:17;;;;;;;21.30;11.20;;;;;;;10.96;100.00;101986.25;7389615;19;20415;-49
2022/03/26 11:00:47;;;;;;;24.43;11.07;;;;;;;10.86;100.00;101987.38;7395916;19;20390;-49
2022/03/26 11:03:17;;;;;;;21.33;12.90;;;;;;;10.87;100.00;101982.28;7386898;19;20421;-50
2022/03/26 11:05:47;;;;;;;21.53;11.10;;;;;;;10.77;100.00;101974.81;7395308;19;20426;-52
2022/03/26 11:08:18;;;;;;;27.90;15.50;;;;;;;10.79;100.00;101968.03;7390648;19;20411;-50
2022/03/26 11:10:50;;;;;;;22.77;12.80;;;;;;;10.82;100.00;101959.59;7396322;19;20811;-53
2022/03/26 11:13:22;;;;;;;24.70;13.17;;;;;;;10.86;100.00;101956.41;7390002;19;20968;-53
2022/03/26 11:15:55;;;;;;;25.70;14.33;;;;;;;10.83;100.00;101962.25;7394570;19;20419;-51
2022/03/26 11:18:47;;;;;;;23.53;13.67;;;;;;;10.88;100.00;101955.66;7386556;19;20423;-46
2022/03/26 11:21:36;;;;;;;19.03;11.63;;;;;;;10.89;100.00;101953.97;7395764;19;20391;-49